sensor_id;sensor_type;location;lat;lon;timestamp;P1;durP1;ratioP1;P2;durP2;ratioP2
5612;SDS011;63463;53.586;9.928;2023-07-20T00:00:23;5.80;;;4.00;;
5612;SDS011;63463;53.586;9.928;2023-07-20T00:02:50;4.77;;;4.33;;
5612;SDS011;63463;53.586;9.928;2023-07-20T00:05:16;4.77;;;4.30;;
5612;SDS011;63463;53.586;9.928;2023-07-20T00:07:46;4.47;;;4.07;;
5612;SDS011;63463;53.586;9.928;2023-07-20T00:10:12;9.23;;;3.60;;
5612;SDS011;63463;53.586;9.928;2023-07-20T00:12:37;8.97;;;3.70;;
5612;SDS011;63463;53.586;9.928;2023-07-20T00:15:04;4.20;;;3.90;;
5612;SDS011;63463;53.586;9.928;2023-07-20T00:17:30;3.90;;;3.70;;
5612;SDS011;63463;53.586;9.928;2023-07-20T00:19:56;4.30;;;3.90;;
5612;SDS011;63463;53.586;9.928;2023-07-20T00:22:22;3.90;;;3.67;;
5612;SDS011;63463;53.586;9.928;2023-07-20T00:24:47;3.77;;;3.60;;
5612;SDS011;63463;53.586;9.928;2023-07-20T00:27:14;4.87;;;4.40;;
5612;SDS011;63463;53.586;9.928;2023-07-20T00:29:40;4.80;;;4.10;;
5612;SDS011;63463;53.586;9.928;2023-07-20T00:32:06;4.10;;;3.80;;
5612;SDS011;63463;53.586;9.928;2023-07-20T00:34:32;4.27;;;3.83;;
5612;SDS011;63463;53.586;9.928;2023-07-20T00:36:58;4.13;;;3.93;;
5612;SDS011;63463;53.586;9.928;2023-07-20T00:39:24;4.40;;;3.90;;
5612;SDS011;63463;53.586;9.928;2023-07-20T00:41:50;4.40;;;4.20;;
5612;SDS011;63463;53.586;9.928;2023-07-20T00:44:16;5.17;;;4.67;;
5612;SDS011;63463;53.586;9.928;2023-07-20T00:46:42;4.70;;;4.23;;
5612;SDS011;63463;53.586;9.928;2023-07-20T00:49:08;5.43;;;4.83;;
5612;SDS011;63463;53.586;9.928;2023-07-20T00:51:34;12.63;;;5.37;;
5612;SDS011;63463;53.586;9.928;2023-07-20T00:54:00;5.90;;;5.10;;
5612;SDS011;63463;53.586;9.928;2023-07-20T00:56:27;5.53;;;4.80;;
5612;SDS011;63463;53.586;9.928;2023-07-20T00:58:53;10.53;;;5.17;;
5612;SDS011;63463;53.586;9.928;2023-07-20T01:01:19;6.57;;;5.47;;
5612;SDS011;63463;53.586;9.928;2023-07-20T01:03:45;6.47;;;5.30;;
5612;SDS011;63463;53.586;9.928;2023-07-20T01:09:19;5.97;;;5.47;;
5612;SDS011;63463;53.586;9.928;2023-07-20T01:11:54;6.63;;;6.00;;
5612;SDS011;63463;53.586;9.928;2023-07-20T01:14:22;6.70;;;6.10;;
5612;SDS011;63463;53.586;9.928;2023-07-20T01:16:48;7.13;;;5.70;;
5612;SDS011;63463;53.586;9.928;2023-07-20T01:19:17;6.97;;;6.27;;
5612;SDS011;63463;53.586;9.928;2023-07-20T01:24:32;7.20;;;6.00;;
5612;SDS011;63463;53.586;9.928;2023-07-20T01:32:34;9.40;;;6.33;;
5612;SDS011;63463;53.586;9.928;2023-07-20T01:35:00;7.13;;;6.07;;
5612;SDS011;63463;53.586;9.928;2023-07-20T01:37:28;6.93;;;6.17;;
5612;SDS011;63463;53.586;9.928;2023-07-20T01:39:56;7.40;;;6.53;;
5612;SDS011;63463;53.586;9.928;2023-07-20T01:42:22;7.53;;;5.77;;
5612;SDS011;63463;53.586;9.928;2023-07-20T01:44:53;6.97;;;6.27;;
5612;SDS011;63463;53.586;9.928;2023-07-20T01:47:19;6.67;;;5.87;;
5612;SDS011;63463;53.586;9.928;2023-07-20T01:49:45;6.30;;;5.57;;
5612;SDS011;63463;53.586;9.928;2023-07-20T01:52:11;6.63;;;5.90;;
5612;SDS011;63463;53.586;9.928;2023-07-20T01:54:37;6.43;;;5.73;;
5612;SDS011;63463;53.586;9.928;2023-07-20T01:57:04;8.10;;;6.27;;
5612;SDS011;63463;53.586;9.928;2023-07-20T01:59:30;8.93;;;6.40;;
5612;SDS011;63463;53.586;9.928;2023-07-20T02:01:56;6.90;;;6.30;;
5612;SDS011;63463;53.586;9.928;2023-07-20T02:04:21;7.20;;;6.40;;
5612;SDS011;63463;53.586;9.928;2023-07-20T02:06:47;8.30;;;6.87;;
5612;SDS011;63463;53.586;9.928;2023-07-20T02:09:15;10.73;;;6.70;;
5612;SDS011;63463;53.586;9.928;2023-07-20T02:11:41;11.03;;;6.73;;
5612;SDS011;63463;53.586;9.928;2023-07-20T02:14:07;6.60;;;5.70;;
5612;SDS011;63463;53.586;9.928;2023-07-20T02:16:33;7.17;;;5.70;;
5612;SDS011;63463;53.586;9.928;2023-07-20T02:18:59;8.07;;;5.87;;
5612;SDS011;63463;53.586;9.928;2023-07-20T02:21:25;7.50;;;6.00;;
5612;SDS011;63463;53.586;9.928;2023-07-20T02:23:51;8.57;;;6.03;;
5612;SDS011;63463;53.586;9.928;2023-07-20T02:26:17;6.83;;;5.53;;
5612;SDS011;63463;53.586;9.928;2023-07-20T02:28:43;8.17;;;5.30;;
5612;SDS011;63463;53.586;9.928;2023-07-20T02:31:08;6.00;;;5.40;;
5612;SDS011;63463;53.586;9.928;2023-07-20T02:33:34;6.57;;;6.00;;
5612;SDS011;63463;53.586;9.928;2023-07-20T02:36:00;6.53;;;5.93;;
5612;SDS011;63463;53.586;9.928;2023-07-20T02:38:28;8.67;;;5.90;;
5612;SDS011;63463;53.586;9.928;2023-07-20T02:40:54;8.70;;;6.30;;
5612;SDS011;63463;53.586;9.928;2023-07-20T02:43:20;9.93;;;5.87;;
5612;SDS011;63463;53.586;9.928;2023-07-20T02:45:46;6.37;;;5.87;;
5612;SDS011;63463;53.586;9.928;2023-07-20T02:48:12;8.60;;;6.60;;
5612;SDS011;63463;53.586;9.928;2023-07-20T02:50:38;8.13;;;6.93;;
5612;SDS011;63463;53.586;9.928;2023-07-20T02:53:05;7.40;;;6.47;;
5612;SDS011;63463;53.586;9.928;2023-07-20T02:55:31;9.17;;;6.93;;
5612;SDS011;63463;53.586;9.928;2023-07-20T02:57:58;7.73;;;6.67;;
5612;SDS011;63463;53.586;9.928;2023-07-20T03:00:24;7.40;;;6.40;;
5612;SDS011;63463;53.586;9.928;2023-07-20T03:02:50;6.60;;;6.10;;
5612;SDS011;63463;53.586;9.928;2023-07-20T03:05:20;10.70;;;6.90;;
5612;SDS011;63463;53.586;9.928;2023-07-20T03:07:46;10.93;;;6.10;;
5612;SDS011;63463;53.586;9.928;2023-07-20T03:10:12;8.07;;;6.27;;
5612;SDS011;63463;53.586;9.928;2023-07-20T03:12:38;7.70;;;6.97;;
5612;SDS011;63463;53.586;9.928;2023-07-20T03:15:04;8.67;;;6.60;;
5612;SDS011;63463;53.586;9.928;2023-07-20T03:17:31;6.73;;;6.00;;
5612;SDS011;63463;53.586;9.928;2023-07-20T03:19:57;6.90;;;6.17;;
5612;SDS011;63463;53.586;9.928;2023-07-20T03:22:24;10.07;;;6.00;;
5612;SDS011;63463;53.586;9.928;2023-07-20T03:24:51;6.90;;;6.20;;
5612;SDS011;63463;53.586;9.928;2023-07-20T03:27:17;6.73;;;6.10;;
5612;SDS011;63463;53.586;9.928;2023-07-20T03:29:43;5.73;;;5.20;;
5612;SDS011;63463;53.586;9.928;2023-07-20T03:32:10;10.33;;;5.67;;
5612;SDS011;63463;53.586;9.928;2023-07-20T03:34:36;11.23;;;6.33;;
5612;SDS011;63463;53.586;9.928;2023-07-20T03:37:02;6.17;;;5.67;;
5612;SDS011;63463;53.586;9.928;2023-07-20T03:39:29;5.83;;;5.33;;
5612;SDS011;63463;53.586;9.928;2023-07-20T03:41:57;7.93;;;6.40;;
5612;SDS011;63463;53.586;9.928;2023-07-20T03:44:24;7.00;;;6.30;;
5612;SDS011;63463;53.586;9.928;2023-07-20T03:46:50;7.27;;;6.47;;
5612;SDS011;63463;53.586;9.928;2023-07-20T03:49:16;9.83;;;6.60;;
5612;SDS011;63463;53.586;9.928;2023-07-20T03:51:42;7.90;;;6.70;;
5612;SDS011;63463;53.586;9.928;2023-07-20T03:54:08;7.73;;;6.93;;
5612;SDS011;63463;53.586;9.928;2023-07-20T03:56:34;7.43;;;6.20;;
5612;SDS011;63463;53.586;9.928;2023-07-20T03:59:01;8.40;;;6.43;;
5612;SDS011;63463;53.586;9.928;2023-07-20T04:01:30;7.23;;;6.63;;
5612;SDS011;63463;53.586;9.928;2023-07-20T04:04:01;7.67;;;6.87;;
5612;SDS011;63463;53.586;9.928;2023-07-20T04:06:27;7.80;;;6.77;;
5612;SDS011;63463;53.586;9.928;2023-07-20T04:08:53;13.23;;;7.60;;
5612;SDS011;63463;53.586;9.928;2023-07-20T04:11:19;15.37;;;7.57;;
5612;SDS011;63463;53.586;9.928;2023-07-20T04:13:45;16.30;;;7.90;;
5612;SDS011;63463;53.586;9.928;2023-07-20T04:16:11;8.27;;;7.40;;
5612;SDS011;63463;53.586;9.928;2023-07-20T04:18:37;10.90;;;7.70;;
5612;SDS011;63463;53.586;9.928;2023-07-20T04:21:03;12.77;;;6.97;;
5612;SDS011;63463;53.586;9.928;2023-07-20T04:23:29;8.13;;;7.20;;
5612;SDS011;63463;53.586;9.928;2023-07-20T04:25:55;7.70;;;6.97;;
5612;SDS011;63463;53.586;9.928;2023-07-20T04:28:21;7.00;;;6.30;;
5612;SDS011;63463;53.586;9.928;2023-07-20T04:30:48;10.20;;;5.83;;
5612;SDS011;63463;53.586;9.928;2023-07-20T04:33:17;6.97;;;6.10;;
5612;SDS011;63463;53.586;9.928;2023-07-20T04:35:47;6.87;;;6.27;;
5612;SDS011;63463;53.586;9.928;2023-07-20T04:38:14;7.60;;;6.10;;
5612;SDS011;63463;53.586;9.928;2023-07-20T04:40:42;6.33;;;4.87;;
5612;SDS011;63463;53.586;9.928;2023-07-20T04:43:08;31.93;;;6.30;;
5612;SDS011;63463;53.586;9.928;2023-07-20T04:45:34;7.23;;;5.70;;
5612;SDS011;63463;53.586;9.928;2023-07-20T04:48:00;8.60;;;5.87;;
5612;SDS011;63463;53.586;9.928;2023-07-20T04:50:26;9.43;;;5.57;;
5612;SDS011;63463;53.586;9.928;2023-07-20T04:52:52;7.97;;;6.50;;
5612;SDS011;63463;53.586;9.928;2023-07-20T04:55:18;10.30;;;6.10;;
5612;SDS011;63463;53.586;9.928;2023-07-20T04:57:44;5.80;;;5.27;;
5612;SDS011;63463;53.586;9.928;2023-07-20T05:00:10;5.70;;;5.20;;
5612;SDS011;63463;53.586;9.928;2023-07-20T05:02:38;7.60;;;6.00;;
5612;SDS011;63463;53.586;9.928;2023-07-20T05:05:04;10.70;;;6.20;;
5612;SDS011;63463;53.586;9.928;2023-07-20T05:07:34;16.97;;;6.30;;
5612;SDS011;63463;53.586;9.928;2023-07-20T05:10:00;7.63;;;6.03;;
5612;SDS011;63463;53.586;9.928;2023-07-20T05:12:26;8.33;;;6.40;;
5612;SDS011;63463;53.586;9.928;2023-07-20T05:14:52;10.43;;;6.10;;
5612;SDS011;63463;53.586;9.928;2023-07-20T05:17:18;7.57;;;6.43;;
5612;SDS011;63463;53.586;9.928;2023-07-20T05:19:44;12.53;;;6.20;;
5612;SDS011;63463;53.586;9.928;2023-07-20T05:22:16;16.30;;;6.20;;
5612;SDS011;63463;53.586;9.928;2023-07-20T05:24:42;7.57;;;6.57;;
5612;SDS011;63463;53.586;9.928;2023-07-20T05:27:08;9.67;;;6.57;;
5612;SDS011;63463;53.586;9.928;2023-07-20T05:29:34;13.37;;;7.40;;
5612;SDS011;63463;53.586;9.928;2023-07-20T05:32:00;11.67;;;7.50;;
5612;SDS011;63463;53.586;9.928;2023-07-20T05:34:27;13.80;;;8.00;;
5612;SDS011;63463;53.586;9.928;2023-07-20T05:36:54;7.93;;;7.13;;
5612;SDS011;63463;53.586;9.928;2023-07-20T05:39:20;7.07;;;6.47;;
5612;SDS011;63463;53.586;9.928;2023-07-20T05:41:47;8.77;;;6.90;;
5612;SDS011;63463;53.586;9.928;2023-07-20T05:44:13;7.37;;;6.57;;
5612;SDS011;63463;53.586;9.928;2023-07-20T05:46:39;9.77;;;6.83;;
5612;SDS011;63463;53.586;9.928;2023-07-20T05:49:05;13.40;;;6.63;;
5612;SDS011;63463;53.586;9.928;2023-07-20T05:51:31;7.10;;;6.43;;
5612;SDS011;63463;53.586;9.928;2023-07-20T05:53:57;7.93;;;5.67;;
5612;SDS011;63463;53.586;9.928;2023-07-20T05:56:23;6.70;;;6.10;;
5612;SDS011;63463;53.586;9.928;2023-07-20T05:58:49;5.87;;;5.43;;
5612;SDS011;63463;53.586;9.928;2023-07-20T06:01:15;5.87;;;5.30;;
5612;SDS011;63463;53.586;9.928;2023-07-20T06:03:43;5.50;;;4.83;;
5612;SDS011;63463;53.586;9.928;2023-07-20T06:06:09;7.10;;;5.33;;
5612;SDS011;63463;53.586;9.928;2023-07-20T06:08:37;4.90;;;4.57;;
5612;SDS011;63463;53.586;9.928;2023-07-20T06:11:03;8.83;;;4.70;;
5612;SDS011;63463;53.586;9.928;2023-07-20T06:13:29;4.60;;;4.27;;
5612;SDS011;63463;53.586;9.928;2023-07-20T06:15:55;4.30;;;4.00;;
5612;SDS011;63463;53.586;9.928;2023-07-20T06:18:22;4.50;;;3.50;;
5612;SDS011;63463;53.586;9.928;2023-07-20T06:20:51;3.80;;;3.40;;
5612;SDS011;63463;53.586;9.928;2023-07-20T06:23:20;3.93;;;3.53;;
5612;SDS011;63463;53.586;9.928;2023-07-20T06:25:46;4.20;;;3.70;;
5612;SDS011;63463;53.586;9.928;2023-07-20T06:28:12;4.37;;;3.60;;
5612;SDS011;63463;53.586;9.928;2023-07-20T06:30:39;3.57;;;3.27;;
5612;SDS011;63463;53.586;9.928;2023-07-20T06:33:05;4.10;;;3.27;;
5612;SDS011;63463;53.586;9.928;2023-07-20T06:35:33;4.83;;;3.40;;
5612;SDS011;63463;53.586;9.928;2023-07-20T06:37:59;5.13;;;2.83;;
5612;SDS011;63463;53.586;9.928;2023-07-20T06:40:25;4.00;;;2.90;;
5612;SDS011;63463;53.586;9.928;2023-07-20T06:42:51;3.13;;;2.93;;
5612;SDS011;63463;53.586;9.928;2023-07-20T06:45:17;6.47;;;2.80;;
5612;SDS011;63463;53.586;9.928;2023-07-20T06:47:47;2.97;;;2.77;;
5612;SDS011;63463;53.586;9.928;2023-07-20T06:50:14;3.03;;;2.70;;
5612;SDS011;63463;53.586;9.928;2023-07-20T06:52:40;6.77;;;2.90;;
5612;SDS011;63463;53.586;9.928;2023-07-20T06:55:07;4.13;;;2.83;;
5612;SDS011;63463;53.586;9.928;2023-07-20T06:57:33;6.60;;;3.20;;
5612;SDS011;63463;53.586;9.928;2023-07-20T06:59:59;4.60;;;3.30;;
5612;SDS011;63463;53.586;9.928;2023-07-20T07:02:25;12.60;;;2.60;;
5612;SDS011;63463;53.586;9.928;2023-07-20T07:04:51;2.60;;;2.50;;
5612;SDS011;63463;53.586;9.928;2023-07-20T07:07:17;2.97;;;2.73;;
5612;SDS011;63463;53.586;9.928;2023-07-20T07:09:43;4.73;;;2.40;;
5612;SDS011;63463;53.586;9.928;2023-07-20T07:12:09;2.97;;;2.77;;
5612;SDS011;63463;53.586;9.928;2023-07-20T07:14:35;2.93;;;2.50;;
5612;SDS011;63463;53.586;9.928;2023-07-20T07:17:01;8.30;;;2.97;;
5612;SDS011;63463;53.586;9.928;2023-07-20T07:19:28;5.33;;;2.73;;
5612;SDS011;63463;53.586;9.928;2023-07-20T07:21:54;5.53;;;2.90;;
5612;SDS011;63463;53.586;9.928;2023-07-20T07:24:21;12.97;;;3.23;;
5612;SDS011;63463;53.586;9.928;2023-07-20T07:26:47;3.57;;;2.60;;
5612;SDS011;63463;53.586;9.928;2023-07-20T07:29:13;3.80;;;2.77;;
5612;SDS011;63463;53.586;9.928;2023-07-20T07:31:39;3.07;;;2.73;;
5612;SDS011;63463;53.586;9.928;2023-07-20T07:34:06;5.90;;;2.70;;
5612;SDS011;63463;53.586;9.928;2023-07-20T07:36:32;4.83;;;2.73;;
5612;SDS011;63463;53.586;9.928;2023-07-20T07:38:59;5.17;;;2.93;;
5612;SDS011;63463;53.586;9.928;2023-07-20T07:41:25;5.13;;;2.90;;
5612;SDS011;63463;53.586;9.928;2023-07-20T07:43:51;6.60;;;2.90;;
5612;SDS011;63463;53.586;9.928;2023-07-20T07:46:17;5.80;;;2.80;;
5612;SDS011;63463;53.586;9.928;2023-07-20T07:48:44;3.00;;;2.80;;
5612;SDS011;63463;53.586;9.928;2023-07-20T07:51:10;4.90;;;2.77;;
5612;SDS011;63463;53.586;9.928;2023-07-20T07:53:36;4.50;;;2.83;;
5612;SDS011;63463;53.586;9.928;2023-07-20T07:56:06;4.90;;;3.00;;
5612;SDS011;63463;53.586;9.928;2023-07-20T07:58:33;7.87;;;3.60;;
5612;SDS011;63463;53.586;9.928;2023-07-20T08:00:59;9.67;;;4.00;;
5612;SDS011;63463;53.586;9.928;2023-07-20T08:03:25;3.63;;;3.30;;
5612;SDS011;63463;53.586;9.928;2023-07-20T08:05:53;3.53;;;3.23;;
5612;SDS011;63463;53.586;9.928;2023-07-20T08:08:24;9.40;;;3.00;;
5612;SDS011;63463;53.586;9.928;2023-07-20T08:10:53;5.27;;;3.27;;
5612;SDS011;63463;53.586;9.928;2023-07-20T08:13:20;3.60;;;2.93;;
5612;SDS011;63463;53.586;9.928;2023-07-20T08:15:48;9.70;;;3.53;;
5612;SDS011;63463;53.586;9.928;2023-07-20T08:18:15;3.77;;;3.20;;
5612;SDS011;63463;53.586;9.928;2023-07-20T08:20:43;4.23;;;2.80;;
5612;SDS011;63463;53.586;9.928;2023-07-20T08:23:09;6.03;;;2.83;;
5612;SDS011;63463;53.586;9.928;2023-07-20T08:25:39;8.70;;;3.50;;
5612;SDS011;63463;53.586;9.928;2023-07-20T08:28:09;5.70;;;2.23;;
5612;SDS011;63463;53.586;9.928;2023-07-20T08:33:07;5.43;;;3.10;;
5612;SDS011;63463;53.586;9.928;2023-07-20T08:35:34;3.30;;;2.63;;
5612;SDS011;63463;53.586;9.928;2023-07-20T08:38:00;13.93;;;2.87;;
5612;SDS011;63463;53.586;9.928;2023-07-20T08:40:27;13.07;;;3.40;;
5612;SDS011;63463;53.586;9.928;2023-07-20T08:42:54;5.37;;;3.50;;
5612;SDS011;63463;53.586;9.928;2023-07-20T08:45:22;8.93;;;3.53;;
5612;SDS011;63463;53.586;9.928;2023-07-20T08:47:48;6.47;;;3.57;;
5612;SDS011;63463;53.586;9.928;2023-07-20T08:50:14;9.57;;;4.17;;
5612;SDS011;63463;53.586;9.928;2023-07-20T08:52:41;6.47;;;3.60;;
5612;SDS011;63463;53.586;9.928;2023-07-20T08:55:07;11.60;;;4.43;;
5612;SDS011;63463;53.586;9.928;2023-07-20T08:57:33;15.63;;;4.20;;
5612;SDS011;63463;53.586;9.928;2023-07-20T09:00:03;12.30;;;4.63;;
5612;SDS011;63463;53.586;9.928;2023-07-20T09:02:30;11.63;;;3.90;;
5612;SDS011;63463;53.586;9.928;2023-07-20T09:04:57;6.40;;;3.57;;
5612;SDS011;63463;53.586;9.928;2023-07-20T09:07:23;8.33;;;3.53;;
5612;SDS011;63463;53.586;9.928;2023-07-20T09:09:49;11.50;;;4.40;;
5612;SDS011;63463;53.586;9.928;2023-07-20T09:12:15;7.57;;;3.10;;
5612;SDS011;63463;53.586;9.928;2023-07-20T09:14:45;8.77;;;4.00;;
5612;SDS011;63463;53.586;9.928;2023-07-20T09:17:14;4.20;;;2.97;;
5612;SDS011;63463;53.586;9.928;2023-07-20T09:19:46;5.60;;;3.00;;
5612;SDS011;63463;53.586;9.928;2023-07-20T09:22:13;9.60;;;3.23;;
5612;SDS011;63463;53.586;9.928;2023-07-20T09:24:39;4.60;;;2.47;;
5612;SDS011;63463;53.586;9.928;2023-07-20T09:27:06;4.43;;;2.30;;
5612;SDS011;63463;53.586;9.928;2023-07-20T09:29:34;6.17;;;2.30;;
5612;SDS011;63463;53.586;9.928;2023-07-20T09:32:03;14.23;;;3.03;;
5612;SDS011;63463;53.586;9.928;2023-07-20T09:34:30;3.90;;;2.83;;
5612;SDS011;63463;53.586;9.928;2023-07-20T09:36:59;5.50;;;2.30;;
5612;SDS011;63463;53.586;9.928;2023-07-20T09:39:26;3.17;;;2.13;;
5612;SDS011;63463;53.586;9.928;2023-07-20T09:41:52;4.87;;;2.17;;
5612;SDS011;63463;53.586;9.928;2023-07-20T09:44:20;5.43;;;2.33;;
5612;SDS011;63463;53.586;9.928;2023-07-20T09:46:46;2.30;;;2.20;;
5612;SDS011;63463;53.586;9.928;2023-07-20T09:49:13;2.70;;;2.50;;
5612;SDS011;63463;53.586;9.928;2023-07-20T09:51:40;2.37;;;2.27;;
5612;SDS011;63463;53.586;9.928;2023-07-20T09:54:07;5.90;;;2.40;;
5612;SDS011;63463;53.586;9.928;2023-07-20T09:56:34;2.73;;;1.97;;
5612;SDS011;63463;53.586;9.928;2023-07-20T09:59:00;2.30;;;2.10;;
5612;SDS011;63463;53.586;9.928;2023-07-20T10:01:26;4.17;;;1.90;;
5612;SDS011;63463;53.586;9.928;2023-07-20T10:03:54;3.67;;;2.23;;
5612;SDS011;63463;53.586;9.928;2023-07-20T10:06:24;2.40;;;1.87;;
5612;SDS011;63463;53.586;9.928;2023-07-20T10:08:53;7.23;;;2.30;;
5612;SDS011;63463;53.586;9.928;2023-07-20T10:11:21;9.83;;;2.30;;
5612;SDS011;63463;53.586;9.928;2023-07-20T10:13:48;2.57;;;1.90;;
5612;SDS011;63463;53.586;9.928;2023-07-20T10:16:25;7.93;;;2.33;;
5612;SDS011;63463;53.586;9.928;2023-07-20T10:19:11;3.67;;;1.90;;
5612;SDS011;63463;53.586;9.928;2023-07-20T10:21:40;3.80;;;1.80;;
5612;SDS011;63463;53.586;9.928;2023-07-20T10:24:06;6.83;;;2.07;;
5612;SDS011;63463;53.586;9.928;2023-07-20T10:26:36;5.30;;;1.53;;
5612;SDS011;63463;53.586;9.928;2023-07-20T10:29:03;9.50;;;2.30;;
5612;SDS011;63463;53.586;9.928;2023-07-20T10:31:30;4.57;;;2.10;;
5612;SDS011;63463;53.586;9.928;2023-07-20T10:33:56;4.70;;;1.30;;
5612;SDS011;63463;53.586;9.928;2023-07-20T10:36:26;7.43;;;1.97;;
5612;SDS011;63463;53.586;9.928;2023-07-20T10:38:56;3.43;;;1.50;;
5612;SDS011;63463;53.586;9.928;2023-07-20T10:41:57;3.97;;;1.50;;
5612;SDS011;63463;53.586;9.928;2023-07-20T10:44:15;7.20;;;1.70;;
5612;SDS011;63463;53.586;9.928;2023-07-20T10:46:45;1.53;;;1.40;;
5612;SDS011;63463;53.586;9.928;2023-07-20T10:49:12;1.20;;;1.10;;
5612;SDS011;63463;53.586;9.928;2023-07-20T10:51:46;3.20;;;1.30;;
5612;SDS011;63463;53.586;9.928;2023-07-20T10:56:47;9.50;;;1.40;;
5612;SDS011;63463;53.586;9.928;2023-07-20T11:01:51;9.23;;;1.50;;
5612;SDS011;63463;53.586;9.928;2023-07-20T11:04:37;4.30;;;1.40;;
5612;SDS011;63463;53.586;9.928;2023-07-20T11:07:05;1.53;;;1.37;;
5612;SDS011;63463;53.586;9.928;2023-07-20T11:09:34;2.00;;;1.23;;
5612;SDS011;63463;53.586;9.928;2023-07-20T11:12:13;2.90;;;1.30;;
5612;SDS011;63463;53.586;9.928;2023-07-20T11:14:43;1.83;;;1.00;;
5612;SDS011;63463;53.586;9.928;2023-07-20T11:17:12;1.40;;;1.30;;
5612;SDS011;63463;53.586;9.928;2023-07-20T11:19:39;2.70;;;1.37;;
5612;SDS011;63463;53.586;9.928;2023-07-20T11:22:08;4.20;;;1.40;;
5612;SDS011;63463;53.586;9.928;2023-07-20T11:24:34;2.70;;;1.33;;
5612;SDS011;63463;53.586;9.928;2023-07-20T11:27:04;2.50;;;1.40;;
5612;SDS011;63463;53.586;9.928;2023-07-20T11:29:30;1.20;;;1.10;;
5612;SDS011;63463;53.586;9.928;2023-07-20T11:31:56;3.70;;;1.03;;
5612;SDS011;63463;53.586;9.928;2023-07-20T11:34:24;3.07;;;1.40;;
5612;SDS011;63463;53.586;9.928;2023-07-20T11:36:52;1.97;;;1.23;;
5612;SDS011;63463;53.586;9.928;2023-07-20T11:39:21;2.23;;;1.30;;
5612;SDS011;63463;53.586;9.928;2023-07-20T11:41:51;9.40;;;1.57;;
5612;SDS011;63463;53.586;9.928;2023-07-20T11:44:18;2.00;;;1.07;;
5612;SDS011;63463;53.586;9.928;2023-07-20T11:46:45;5.50;;;2.00;;
5612;SDS011;63463;53.586;9.928;2023-07-20T11:49:13;1.67;;;1.07;;
5612;SDS011;63463;53.586;9.928;2023-07-20T11:51:40;4.30;;;1.37;;
5612;SDS011;63463;53.586;9.928;2023-07-20T11:54:06;1.73;;;1.20;;
5612;SDS011;63463;53.586;9.928;2023-07-20T11:56:34;2.70;;;1.10;;
5612;SDS011;63463;53.586;9.928;2023-07-20T11:59:01;1.90;;;1.00;;
5612;SDS011;63463;53.586;9.928;2023-07-20T12:01:32;3.60;;;1.03;;
5612;SDS011;63463;53.586;9.928;2023-07-20T12:04:00;2.50;;;1.40;;
5612;SDS011;63463;53.586;9.928;2023-07-20T12:06:27;6.87;;;1.10;;
5612;SDS011;63463;53.586;9.928;2023-07-20T12:08:57;1.10;;;1.00;;
5612;SDS011;63463;53.586;9.928;2023-07-20T12:11:37;2.93;;;1.23;;
5612;SDS011;63463;53.586;9.928;2023-07-20T12:14:08;2.20;;;0.97;;
5612;SDS011;63463;53.586;9.928;2023-07-20T12:16:34;4.03;;;0.80;;
5612;SDS011;63463;53.586;9.928;2023-07-20T12:19:05;1.43;;;1.10;;
5612;SDS011;63463;53.586;9.928;2023-07-20T12:21:31;3.53;;;1.10;;
5612;SDS011;63463;53.586;9.928;2023-07-20T12:23:57;8.43;;;2.07;;
5612;SDS011;63463;53.586;9.928;2023-07-20T12:26:24;3.83;;;1.10;;
5612;SDS011;63463;53.586;9.928;2023-07-20T12:28:50;1.50;;;1.20;;
5612;SDS011;63463;53.586;9.928;2023-07-20T12:31:16;6.83;;;1.10;;
5612;SDS011;63463;53.586;9.928;2023-07-20T12:33:43;4.90;;;1.63;;
5612;SDS011;63463;53.586;9.928;2023-07-20T12:36:09;53.70;;;9.57;;
5612;SDS011;63463;53.586;9.928;2023-07-20T12:38:35;2.50;;;1.60;;
5612;SDS011;63463;53.586;9.928;2023-07-20T12:41:03;6.07;;;2.73;;
5612;SDS011;63463;53.586;9.928;2023-07-20T12:43:30;2.87;;;1.47;;
5612;SDS011;63463;53.586;9.928;2023-07-20T12:45:57;6.00;;;1.67;;
5612;SDS011;63463;53.586;9.928;2023-07-20T12:48:24;5.87;;;1.53;;
5612;SDS011;63463;53.586;9.928;2023-07-20T12:50:50;4.87;;;1.40;;
5612;SDS011;63463;53.586;9.928;2023-07-20T12:53:16;7.10;;;1.20;;
5612;SDS011;63463;53.586;9.928;2023-07-20T12:55:42;3.07;;;1.50;;
5612;SDS011;63463;53.586;9.928;2023-07-20T12:58:08;4.10;;;1.07;;
5612;SDS011;63463;53.586;9.928;2023-07-20T13:00:34;2.20;;;1.20;;
5612;SDS011;63463;53.586;9.928;2023-07-20T13:03:00;4.17;;;1.00;;
5612;SDS011;63463;53.586;9.928;2023-07-20T13:05:29;1.83;;;0.87;;
5612;SDS011;63463;53.586;9.928;2023-07-20T13:07:56;3.90;;;0.73;;
5612;SDS011;63463;53.586;9.928;2023-07-20T13:10:24;1.80;;;0.80;;
5612;SDS011;63463;53.586;9.928;2023-07-20T13:12:50;3.33;;;0.80;;
5612;SDS011;63463;53.586;9.928;2023-07-20T13:15:17;1.20;;;0.80;;
5612;SDS011;63463;53.586;9.928;2023-07-20T13:17:43;0.80;;;0.70;;
5612;SDS011;63463;53.586;9.928;2023-07-20T13:20:10;5.23;;;0.90;;
5612;SDS011;63463;53.586;9.928;2023-07-20T13:22:39;6.73;;;1.00;;
5612;SDS011;63463;53.586;9.928;2023-07-20T13:25:06;6.90;;;1.20;;
5612;SDS011;63463;53.586;9.928;2023-07-20T13:27:34;2.80;;;0.97;;
5612;SDS011;63463;53.586;9.928;2023-07-20T13:30:02;5.07;;;0.83;;
5612;SDS011;63463;53.586;9.928;2023-07-20T13:32:32;2.60;;;0.80;;
5612;SDS011;63463;53.586;9.928;2023-07-20T13:34:58;2.23;;;0.90;;
5612;SDS011;63463;53.586;9.928;2023-07-20T13:37:25;3.83;;;1.60;;
5612;SDS011;63463;53.586;9.928;2023-07-20T13:39:52;3.80;;;0.90;;
5612;SDS011;63463;53.586;9.928;2023-07-20T13:42:17;3.50;;;1.20;;
5612;SDS011;63463;53.586;9.928;2023-07-20T13:44:43;4.00;;;1.20;;
5612;SDS011;63463;53.586;9.928;2023-07-20T13:47:32;4.50;;;1.00;;
5612;SDS011;63463;53.586;9.928;2023-07-20T13:49:57;5.53;;;1.40;;
5612;SDS011;63463;53.586;9.928;2023-07-20T13:52:23;1.40;;;0.90;;
5612;SDS011;63463;53.586;9.928;2023-07-20T13:54:49;1.80;;;1.00;;
5612;SDS011;63463;53.586;9.928;2023-07-20T13:57:18;1.80;;;0.80;;
5612;SDS011;63463;53.586;9.928;2023-07-20T13:59:44;1.98;;;1.10;;
5612;SDS011;63463;53.586;9.928;2023-07-20T14:02:13;2.27;;;0.70;;
5612;SDS011;63463;53.586;9.928;2023-07-20T14:04:40;2.30;;;0.80;;
5612;SDS011;63463;53.586;9.928;2023-07-20T14:07:06;4.90;;;0.98;;
5612;SDS011;63463;53.586;9.928;2023-07-20T14:09:33;4.38;;;0.80;;
5612;SDS011;63463;53.586;9.928;2023-07-20T14:11:59;4.30;;;0.80;;
5612;SDS011;63463;53.586;9.928;2023-07-20T14:14:32;7.65;;;0.75;;
5612;SDS011;63463;53.586;9.928;2023-07-20T14:17:02;3.83;;;1.20;;
5612;SDS011;63463;53.586;9.928;2023-07-20T14:19:28;1.92;;;0.60;;
5612;SDS011;63463;53.586;9.928;2023-07-20T14:21:54;3.38;;;0.90;;
5612;SDS011;63463;53.586;9.928;2023-07-20T14:24:23;2.45;;;0.55;;
5612;SDS011;63463;53.586;9.928;2023-07-20T14:26:50;1.33;;;0.90;;
5612;SDS011;63463;53.586;9.928;2023-07-20T14:29:15;3.50;;;1.30;;
5612;SDS011;63463;53.586;9.928;2023-07-20T14:35:00;13.75;;;1.52;;
5612;SDS011;63463;53.586;9.928;2023-07-20T14:37:29;2.03;;;0.70;;
5612;SDS011;63463;53.586;9.928;2023-07-20T14:39:55;3.50;;;0.73;;
5612;SDS011;63463;53.586;9.928;2023-07-20T14:42:22;2.83;;;0.80;;
5612;SDS011;63463;53.586;9.928;2023-07-20T14:44:48;2.47;;;0.80;;
5612;SDS011;63463;53.586;9.928;2023-07-20T14:47:16;2.08;;;0.70;;
5612;SDS011;63463;53.586;9.928;2023-07-20T14:52:52;3.90;;;1.30;;
5612;SDS011;63463;53.586;9.928;2023-07-20T14:55:18;6.00;;;1.37;;
5612;SDS011;63463;53.586;9.928;2023-07-20T14:57:44;6.83;;;1.50;;
5612;SDS011;63463;53.586;9.928;2023-07-20T15:00:10;2.70;;;1.57;;
5612;SDS011;63463;53.586;9.928;2023-07-20T15:02:37;1.67;;;1.00;;
5612;SDS011;63463;53.586;9.928;2023-07-20T15:05:06;2.60;;;1.00;;
5612;SDS011;63463;53.586;9.928;2023-07-20T15:07:32;5.67;;;1.17;;
5612;SDS011;63463;53.586;9.928;2023-07-20T15:09:58;3.27;;;1.40;;
5612;SDS011;63463;53.586;9.928;2023-07-20T15:12:24;2.70;;;1.50;;
5612;SDS011;63463;53.586;9.928;2023-07-20T15:15:04;4.50;;;1.40;;
5612;SDS011;63463;53.586;9.928;2023-07-20T15:17:31;8.77;;;1.43;;
5612;SDS011;63463;53.586;9.928;2023-07-20T15:19:57;2.00;;;1.20;;
5612;SDS011;63463;53.586;9.928;2023-07-20T15:22:24;9.10;;;2.13;;
5612;SDS011;63463;53.586;9.928;2023-07-20T15:24:50;3.53;;;1.30;;